sensor_id;sensor_type;location;lat;lon;timestamp;pressure;altitude;pressure_sealevel;temperature;humidity
12951;BME280;6540;50.858;7.232;2023-04-28T00:00:49;51739.56;;;-142.34;27.88
12951;BME280;6540;50.858;7.232;2023-04-28T00:03:15;51733.50;;;-142.34;28.71
12951;BME280;6540;50.858;7.232;2023-04-28T00:05:41;51733.50;;;-142.34;28.51
12951;BME280;6540;50.858;7.232;2023-04-28T00:08:06;51737.53;;;-142.34;28.20
12951;BME280;6540;50.858;7.232;2023-04-28T00:10:32;51757.72;;;-142.34;29.17
12951;BME280;6540;50.858;7.232;2023-04-28T00:12:58;51757.72;;;-142.34;29.74
12951;BME280;6540;50.858;7.232;2023-04-28T00:15:23;51761.75;;;-142.34;30.07
12951;BME280;6540;50.858;7.232;2023-04-28T00:17:49;51763.75;;;-142.34;29.48
12951;BME280;6540;50.858;7.232;2023-04-28T00:20:14;51757.72;;;-142.34;28.86
12951;BME280;6540;50.858;7.232;2023-04-28T00:23:06;51757.72;;;-142.34;28.47
12951;BME280;6540;50.858;7.232;2023-04-28T00:25:37;51773.84;;;-142.34;29.06
12951;BME280;6540;50.858;7.232;2023-04-28T00:28:09;51723.41;;;-142.34;28.17
12951;BME280;6540;50.858;7.232;2023-04-28T00:31:01;51717.38;;;-142.34;28.29
12951;BME280;6540;50.858;7.232;2023-04-28T00:33:26;51755.69;;;-142.34;28.34
12951;BME280;6540;50.858;7.232;2023-04-28T00:35:58;51806.13;;;-142.34;28.45
12951;BME280;6540;50.858;7.232;2023-04-28T00:38:23;51733.50;;;-142.34;28.49
12951;BME280;6540;50.858;7.232;2023-04-28T00:40:49;51759.72;;;-142.34;27.88
12951;BME280;6540;50.858;7.232;2023-04-28T00:43:14;51741.56;;;-142.34;27.85
12951;BME280;6540;50.858;7.232;2023-04-28T00:45:40;51773.84;;;-142.34;27.71
12951;BME280;6540;50.858;7.232;2023-04-28T00:48:06;51703.25;;;-142.34;27.32
12951;BME280;6540;50.858;7.232;2023-04-28T00:50:32;51717.38;;;-142.34;27.91
12951;BME280;6540;50.858;7.232;2023-04-28T00:52:59;51743.59;;;-142.34;28.95
12951;BME280;6540;50.858;7.232;2023-04-28T00:55:25;51749.66;;;-142.34;28.95
12951;BME280;6540;50.858;7.232;2023-04-28T00:57:50;51777.88;;;-142.34;29.56
12951;BME280;6540;50.858;7.232;2023-04-28T01:00:16;51737.53;;;-142.34;28.27
12951;BME280;6540;50.858;7.232;2023-04-28T01:02:41;51749.66;;;-142.34;28.24
12951;BME280;6540;50.858;7.232;2023-04-28T01:05:08;51733.50;;;-142.34;29.31
12951;BME280;6540;50.858;7.232;2023-04-28T01:07:33;51761.75;;;-142.34;29.44
12951;BME280;6540;50.858;7.232;2023-04-28T01:09:59;51773.84;;;-142.34;28.39
12951;BME280;6540;50.858;7.232;2023-04-28T01:12:24;51775.88;;;-142.34;29.07
12951;BME280;6540;50.858;7.232;2023-04-28T01:14:49;51773.84;;;-142.34;30.48
12951;BME280;6540;50.858;7.232;2023-04-28T01:17:16;51765.78;;;-142.34;29.85
12951;BME280;6540;50.858;7.232;2023-04-28T01:19:41;51773.84;;;-142.34;29.96
12951;BME280;6540;50.858;7.232;2023-04-28T01:22:07;51806.13;;;-142.34;29.07
12951;BME280;6540;50.858;7.232;2023-04-28T01:24:34;51765.78;;;-142.34;29.31
12951;BME280;6540;50.858;7.232;2023-04-28T01:27:00;51840.41;;;-142.34;30.28
12951;BME280;6540;50.858;7.232;2023-04-28T01:29:25;51781.91;;;-142.34;29.34
12951;BME280;6540;50.858;7.232;2023-04-28T01:31:51;51767.81;;;-142.34;28.54
12951;BME280;6540;50.858;7.232;2023-04-28T01:34:16;51737.53;;;-142.34;28.90
12951;BME280;6540;50.858;7.232;2023-04-28T01:36:41;51830.34;;;-142.34;29.88
12951;BME280;6540;50.858;7.232;2023-04-28T01:39:06;51773.84;;;-142.34;30.07
12951;BME280;6540;50.858;7.232;2023-04-28T01:41:32;51792.00;;;-142.34;30.33
12951;BME280;6540;50.858;7.232;2023-04-28T01:44:00;51773.84;;;-142.34;29.95
12951;BME280;6540;50.858;7.232;2023-04-28T01:46:25;51804.13;;;-142.34;29.92
12951;BME280;6540;50.858;7.232;2023-04-28T01:48:51;51790.00;;;-142.34;29.05
12951;BME280;6540;50.858;7.232;2023-04-28T01:51:16;51794.03;;;-142.34;29.42
12951;BME280;6540;50.858;7.232;2023-04-28T01:53:42;51769.81;;;-142.34;29.78
12951;BME280;6540;50.858;7.232;2023-04-28T01:56:26;51790.00;;;-142.34;30.14
12951;BME280;6540;50.858;7.232;2023-04-28T01:58:51;51802.09;;;-142.34;30.38
12951;BME280;6540;50.858;7.232;2023-04-28T02:01:16;51818.22;;;-142.34;29.93
12951;BME280;6540;50.858;7.232;2023-04-28T02:03:41;51767.81;;;-142.34;29.87
12951;BME280;6540;50.858;7.232;2023-04-28T02:06:07;51783.94;;;-142.34;29.35
12951;BME280;6540;50.858;7.232;2023-04-28T02:08:33;51812.19;;;-142.34;30.15
12951;BME280;6540;50.858;7.232;2023-04-28T02:10:58;51775.88;;;-142.34;29.53
12951;BME280;6540;50.858;7.232;2023-04-28T02:13:25;51798.06;;;-142.34;30.50
12951;BME280;6540;50.858;7.232;2023-04-28T02:15:50;51773.84;;;-142.34;29.43
12951;BME280;6540;50.858;7.232;2023-04-28T02:18:16;51761.75;;;-142.34;29.87
12951;BME280;6540;50.858;7.232;2023-04-28T02:20:41;51790.00;;;-142.34;29.32
12951;BME280;6540;50.858;7.232;2023-04-28T02:23:07;51798.06;;;-142.34;28.54
12951;BME280;6540;50.858;7.232;2023-04-28T02:25:32;51781.91;;;-142.34;29.82
12951;BME280;6540;50.858;7.232;2023-04-28T02:27:57;51785.94;;;-142.34;29.86
12951;BME280;6540;50.858;7.232;2023-04-28T02:30:23;51812.19;;;-142.34;30.13
12951;BME280;6540;50.858;7.232;2023-04-28T02:32:48;51757.72;;;-142.34;30.33
12951;BME280;6540;50.858;7.232;2023-04-28T02:35:14;51794.03;;;-142.34;29.01
12951;BME280;6540;50.858;7.232;2023-04-28T02:37:39;51745.59;;;-142.34;28.42
12951;BME280;6540;50.858;7.232;2023-04-28T02:40:05;51785.94;;;-142.34;29.29
12951;BME280;6540;50.858;7.232;2023-04-28T02:42:31;51775.88;;;-142.34;29.93
12951;BME280;6540;50.858;7.232;2023-04-28T02:44:56;51798.06;;;-142.34;29.61
12951;BME280;6540;50.858;7.232;2023-04-28T02:47:21;51794.03;;;-142.34;29.66
12951;BME280;6540;50.858;7.232;2023-04-28T02:49:47;51773.84;;;-142.34;30.21
12951;BME280;6540;50.858;7.232;2023-04-28T02:52:12;51824.28;;;-142.34;30.35
12951;BME280;6540;50.858;7.232;2023-04-28T02:54:37;51826.31;;;-142.34;31.16
12951;BME280;6540;50.858;7.232;2023-04-28T02:57:03;51810.16;;;-142.34;30.75
12951;BME280;6540;50.858;7.232;2023-04-28T02:59:31;51814.19;;;-142.34;30.95
12951;BME280;6540;50.858;7.232;2023-04-28T03:01:56;51836.38;;;-142.34;30.99
12951;BME280;6540;50.858;7.232;2023-04-28T03:04:22;51810.16;;;-142.34;29.55
12951;BME280;6540;50.858;7.232;2023-04-28T03:06:47;51806.13;;;-142.34;29.37
12951;BME280;6540;50.858;7.232;2023-04-28T03:09:13;51794.03;;;-142.34;29.61
12951;BME280;6540;50.858;7.232;2023-04-28T03:11:38;51816.22;;;-142.34;30.32
12951;BME280;6540;50.858;7.232;2023-04-28T03:14:04;51794.03;;;-142.34;31.21
12951;BME280;6540;50.858;7.232;2023-04-28T03:16:29;51787.97;;;-142.34;30.04
12951;BME280;6540;50.858;7.232;2023-04-28T03:18:54;51767.81;;;-142.34;28.61
12951;BME280;6540;50.858;7.232;2023-04-28T03:21:20;51777.88;;;-142.34;29.73
12951;BME280;6540;50.858;7.232;2023-04-28T03:23:45;51836.38;;;-142.34;29.97
12951;BME280;6540;50.858;7.232;2023-04-28T03:26:11;51790.00;;;-142.34;29.69
12951;BME280;6540;50.858;7.232;2023-04-28T03:28:36;51826.31;;;-142.34;28.92
12951;BME280;6540;50.858;7.232;2023-04-28T03:31:01;51816.22;;;-142.34;29.14
12951;BME280;6540;50.858;7.232;2023-04-28T03:33:27;51806.13;;;-142.34;29.47
12951;BME280;6540;50.858;7.232;2023-04-28T03:35:53;51814.19;;;-142.34;28.98
12951;BME280;6540;50.858;7.232;2023-04-28T03:38:18;51818.22;;;-142.34;28.87
12951;BME280;6540;50.858;7.232;2023-04-28T03:40:44;51781.91;;;-142.34;29.00
12951;BME280;6540;50.858;7.232;2023-04-28T03:43:10;51802.09;;;-142.34;28.14
12951;BME280;6540;50.858;7.232;2023-04-28T03:45:35;51777.88;;;-142.34;29.91
12951;BME280;6540;50.858;7.232;2023-04-28T03:48:00;51798.06;;;-142.34;28.73
12951;BME280;6540;50.858;7.232;2023-04-28T03:50:26;51765.78;;;-142.34;27.77
12951;BME280;6540;50.858;7.232;2023-04-28T03:52:51;51771.84;;;-142.34;28.88
12951;BME280;6540;50.858;7.232;2023-04-28T03:55:16;51775.88;;;-142.34;29.65
12951;BME280;6540;50.858;7.232;2023-04-28T03:57:42;51808.16;;;-142.34;29.63
12951;BME280;6540;50.858;7.232;2023-04-28T04:00:07;51787.97;;;-142.34;30.32
12951;BME280;6540;50.858;7.232;2023-04-28T04:02:34;51814.19;;;-142.34;30.50
12951;BME280;6540;50.858;7.232;2023-04-28T04:04:59;51806.13;;;-142.34;30.58
12951;BME280;6540;50.858;7.232;2023-04-28T04:07:25;51777.88;;;-142.34;29.74
12951;BME280;6540;50.858;7.232;2023-04-28T04:09:50;51796.03;;;-142.34;29.34
12951;BME280;6540;50.858;7.232;2023-04-28T04:12:16;51792.00;;;-142.34;29.56
12951;BME280;6540;50.858;7.232;2023-04-28T04:14:41;51802.09;;;-142.34;30.70
12951;BME280;6540;50.858;7.232;2023-04-28T04:17:07;51818.22;;;-142.34;31.72
12951;BME280;6540;50.858;7.232;2023-04-28T04:19:33;51820.25;;;-142.34;31.35
12951;BME280;6540;50.858;7.232;2023-04-28T04:21:58;51854.53;;;-142.34;30.72
12951;BME280;6540;50.858;7.232;2023-04-28T04:24:23;51804.13;;;-142.34;31.41
12951;BME280;6540;50.858;7.232;2023-04-28T04:26:49;51836.38;;;-142.34;31.30
12951;BME280;6540;50.858;7.232;2023-04-28T04:29:14;51806.13;;;-142.34;31.38
12951;BME280;6540;50.858;7.232;2023-04-28T04:31:39;51826.31;;;-142.34;30.32
12951;BME280;6540;50.858;7.232;2023-04-28T04:34:05;51808.16;;;-142.34;29.87
12951;BME280;6540;50.858;7.232;2023-04-28T04:36:30;51812.19;;;-142.34;30.75
12951;BME280;6540;50.858;7.232;2023-04-28T04:38:57;51806.13;;;-142.34;30.73
12951;BME280;6540;50.858;7.232;2023-04-28T04:41:24;51822.25;;;-142.34;31.35
12951;BME280;6540;50.858;7.232;2023-04-28T04:43:50;51836.38;;;-142.34;30.79
12951;BME280;6540;50.858;7.232;2023-04-28T04:46:15;51810.16;;;-142.34;29.92
12951;BME280;6540;50.858;7.232;2023-04-28T04:48:41;51826.31;;;-142.34;30.75
12951;BME280;6540;50.858;7.232;2023-04-28T04:51:06;51818.22;;;-142.34;30.81
12951;BME280;6540;50.858;7.232;2023-04-28T04:53:31;51814.19;;;-142.34;31.10
12951;BME280;6540;50.858;7.232;2023-04-28T04:55:57;51794.03;;;-142.34;30.42
12951;BME280;6540;50.858;7.232;2023-04-28T04:58:22;51814.19;;;-142.34;30.87
12951;BME280;6540;50.858;7.232;2023-04-28T05:00:48;51832.34;;;-142.34;31.45
12951;BME280;6540;50.858;7.232;2023-04-28T05:03:13;51810.16;;;-142.34;30.50
12951;BME280;6540;50.858;7.232;2023-04-28T05:05:39;51818.22;;;-142.34;30.26
12951;BME280;6540;50.858;7.232;2023-04-28T05:08:04;51798.06;;;-142.34;30.60
12951;BME280;6540;50.858;7.232;2023-04-28T05:10:30;51834.38;;;-142.34;30.70
12951;BME280;6540;50.858;7.232;2023-04-28T05:12:55;51826.31;;;-142.34;30.98
12951;BME280;6540;50.858;7.232;2023-04-28T05:15:21;51830.34;;;-142.34;29.11
12951;BME280;6540;50.858;7.232;2023-04-28T05:17:46;51814.19;;;-142.34;30.75
12951;BME280;6540;50.858;7.232;2023-04-28T05:20:11;51818.22;;;-142.34;29.15
12951;BME280;6540;50.858;7.232;2023-04-28T05:22:37;51781.91;;;-142.34;27.99
12951;BME280;6540;50.858;7.232;2023-04-28T05:25:02;51763.75;;;-142.34;28.00
12951;BME280;6540;50.858;7.232;2023-04-28T05:27:28;51816.22;;;-142.34;30.28
12951;BME280;6540;50.858;7.232;2023-04-28T05:29:53;51798.06;;;-142.34;29.09
12951;BME280;6540;50.858;7.232;2023-04-28T05:32:19;51790.00;;;-142.34;29.07
12951;BME280;6540;50.858;7.232;2023-04-28T05:34:45;51820.25;;;-142.34;30.97
12951;BME280;6540;50.858;7.232;2023-04-28T05:37:10;51830.34;;;-142.34;30.77
12951;BME280;6540;50.858;7.232;2023-04-28T05:39:36;51802.09;;;-142.34;28.51
12951;BME280;6540;50.858;7.232;2023-04-28T05:42:01;51785.94;;;-142.34;28.95
12951;BME280;6540;50.858;7.232;2023-04-28T05:44:28;51777.88;;;-142.34;30.87
12951;BME280;6540;50.858;7.232;2023-04-28T05:46:54;51787.97;;;-142.34;29.96
12951;BME280;6540;50.858;7.232;2023-04-28T05:49:19;51769.81;;;-142.34;29.40
12951;BME280;6540;50.858;7.232;2023-04-28T05:51:45;51783.94;;;-142.34;29.11
12951;BME280;6540;50.858;7.232;2023-04-28T05:54:10;51765.78;;;-142.34;28.68
12951;BME280;6540;50.858;7.232;2023-04-28T05:56:36;51761.75;;;-142.34;29.03
12951;BME280;6540;50.858;7.232;2023-04-28T05:59:01;51757.72;;;-142.34;29.77
12951;BME280;6540;50.858;7.232;2023-04-28T06:01:29;51781.91;;;-142.34;31.00
12951;BME280;6540;50.858;7.232;2023-04-28T06:03:55;51785.94;;;-142.34;30.17
12951;BME280;6540;50.858;7.232;2023-04-28T06:06:23;51745.59;;;-142.34;29.14
12951;BME280;6540;50.858;7.232;2023-04-28T06:08:48;51781.91;;;-142.34;29.59
12951;BME280;6540;50.858;7.232;2023-04-28T06:11:13;51818.22;;;-142.34;30.24
12951;BME280;6540;50.858;7.232;2023-04-28T06:13:39;51794.03;;;-142.34;31.09
12951;BME280;6540;50.858;7.232;2023-04-28T06:16:04;51806.13;;;-142.34;32.89
12951;BME280;6540;50.858;7.232;2023-04-28T06:18:30;51794.03;;;-142.34;29.70
12951;BME280;6540;50.858;7.232;2023-04-28T06:20:56;51761.75;;;-142.34;30.45
12951;BME280;6540;50.858;7.232;2023-04-28T06:23:23;51790.00;;;-142.34;30.69
12951;BME280;6540;50.858;7.232;2023-04-28T06:25:49;51798.06;;;-142.34;30.08
12951;BME280;6540;50.858;7.232;2023-04-28T06:28:14;51781.91;;;-142.34;30.92
12951;BME280;6540;50.858;7.232;2023-04-28T06:30:40;51775.88;;;-142.34;31.83
12951;BME280;6540;50.858;7.232;2023-04-28T06:33:05;51755.69;;;-142.34;29.19
12951;BME280;6540;50.858;7.232;2023-04-28T06:35:31;51749.66;;;-142.34;29.04
12951;BME280;6540;50.858;7.232;2023-04-28T06:37:59;51794.03;;;-142.34;29.74
12951;BME280;6540;50.858;7.232;2023-04-28T06:40:26;51790.00;;;-142.34;28.89
12951;BME280;6540;50.858;7.232;2023-04-28T06:42:51;51796.03;;;-142.34;29.60
12951;BME280;6540;50.858;7.232;2023-04-28T06:45:17;51777.88;;;-142.34;29.43
12951;BME280;6540;50.858;7.232;2023-04-28T06:47:42;51773.84;;;-142.34;29.76
12951;BME280;6540;50.858;7.232;2023-04-28T06:50:08;51763.75;;;-142.34;28.69
12951;BME280;6540;50.858;7.232;2023-04-28T06:52:33;51749.66;;;-142.34;28.30
12951;BME280;6540;50.858;7.232;2023-04-28T06:54:59;51761.75;;;-142.34;29.36
12951;BME280;6540;50.858;7.232;2023-04-28T06:57:25;51689.13;;;-142.34;28.95
12951;BME280;6540;50.858;7.232;2023-04-28T06:59:50;51737.53;;;-142.34;28.01
12951;BME280;6540;50.858;7.232;2023-04-28T07:02:15;51741.56;;;-142.34;28.74
12951;BME280;6540;50.858;7.232;2023-04-28T07:04:41;51703.25;;;-142.34;28.54
12951;BME280;6540;50.858;7.232;2023-04-28T07:07:06;51735.53;;;-142.34;29.94
12951;BME280;6540;50.858;7.232;2023-04-28T07:09:35;51731.50;;;-142.34;28.80
12951;BME280;6540;50.858;7.232;2023-04-28T07:12:01;51753.69;;;-142.34;30.60
12951;BME280;6540;50.858;7.232;2023-04-28T07:14:28;51761.75;;;-142.34;30.05
12951;BME280;6540;50.858;7.232;2023-04-28T07:16:53;51749.66;;;-142.34;29.81
12951;BME280;6540;50.858;7.232;2023-04-28T07:19:18;51759.72;;;-142.34;30.24
12951;BME280;6540;50.858;7.232;2023-04-28T07:21:44;51773.84;;;-142.34;28.89
12951;BME280;6540;50.858;7.232;2023-04-28T07:24:10;51691.16;;;-142.34;27.63
12951;BME280;6540;50.858;7.232;2023-04-28T07:26:35;51705.25;;;-142.34;28.65
12951;BME280;6540;50.858;7.232;2023-04-28T07:29:01;51662.91;;;-142.34;27.80
12951;BME280;6540;50.858;7.232;2023-04-28T07:31:26;51755.69;;;-142.34;29.48
12951;BME280;6540;50.858;7.232;2023-04-28T07:33:53;51705.25;;;-142.34;28.29
12951;BME280;6540;50.858;7.232;2023-04-28T07:36:21;51749.66;;;-142.34;29.92
12951;BME280;6540;50.858;7.232;2023-04-28T07:38:49;51741.56;;;-142.34;28.66
12951;BME280;6540;50.858;7.232;2023-04-28T07:41:35;51761.75;;;-142.34;29.37
12951;BME280;6540;50.858;7.232;2023-04-28T07:44:07;51717.38;;;-142.34;28.19
12951;BME280;6540;50.858;7.232;2023-04-28T07:46:48;51737.53;;;-142.34;30.04
12951;BME280;6540;50.858;7.232;2023-04-28T07:49:13;51729.47;;;-142.34;29.70
12951;BME280;6540;50.858;7.232;2023-04-28T07:52:05;51719.38;;;-142.34;29.73
12951;BME280;6540;50.858;7.232;2023-04-28T07:54:30;51749.66;;;-142.34;31.06
12951;BME280;6540;50.858;7.232;2023-04-28T07:56:56;51701.22;;;-142.34;28.67
12951;BME280;6540;50.858;7.232;2023-04-28T07:59:24;51691.16;;;-142.34;28.30
12951;BME280;6540;50.858;7.232;2023-04-28T08:01:49;51727.44;;;-142.34;28.71
12951;BME280;6540;50.858;7.232;2023-04-28T08:04:15;51739.56;;;-142.34;30.09
12951;BME280;6540;50.858;7.232;2023-04-28T08:06:40;51743.59;;;-142.34;31.13
12951;BME280;6540;50.858;7.232;2023-04-28T08:09:05;51697.19;;;-142.34;28.55
12951;BME280;6540;50.858;7.232;2023-04-28T08:11:31;51721.41;;;-142.34;29.52
12951;BME280;6540;50.858;7.232;2023-04-28T08:13:57;51767.81;;;-142.34;30.14
12951;BME280;6540;50.858;7.232;2023-04-28T08:16:26;51723.41;;;-142.34;29.16
12951;BME280;6540;50.858;7.232;2023-04-28T08:18:51;51751.66;;;-142.34;29.85
12951;BME280;6540;50.858;7.232;2023-04-28T08:21:17;51787.97;;;-142.34;30.22
12951;BME280;6540;50.858;7.232;2023-04-28T08:23:42;51725.44;;;-142.34;29.13
12951;BME280;6540;50.858;7.232;2023-04-28T08:26:07;51681.06;;;-142.34;28.25
12951;BME280;6540;50.858;7.232;2023-04-28T08:28:33;51729.47;;;-142.34;30.31
12951;BME280;6540;50.858;7.232;2023-04-28T08:30:58;51683.06;;;-142.34;29.42
12951;BME280;6540;50.858;7.232;2023-04-28T08:33:25;51677.03;;;-142.34;28.03
12951;BME280;6540;50.858;7.232;2023-04-28T08:35:50;51693.16;;;-142.34;29.36
12951;BME280;6540;50.858;7.232;2023-04-28T08:38:15;51644.75;;;-142.34;28.20
12951;BME280;6540;50.858;7.232;2023-04-28T08:40:42;51666.94;;;-142.34;27.58
12951;BME280;6540;50.858;7.232;2023-04-28T08:43:08;51600.38;;;-142.34;26.90
12951;BME280;6540;50.858;7.232;2023-04-28T08:45:43;51632.66;;;-142.34;26.44
12951;BME280;6540;50.858;7.232;2023-04-28T08:48:21;51612.47;;;-142.34;26.53
12951;BME280;6540;50.858;7.232;2023-04-28T08:50:53;51590.28;;;-142.34;26.99
12951;BME280;6540;50.858;7.232;2023-04-28T08:53:25;51624.56;;;-142.34;27.83
12951;BME280;6540;50.858;7.232;2023-04-28T08:55:56;51612.47;;;-142.34;27.68
12951;BME280;6540;50.858;7.232;2023-04-28T08:58:22;51662.91;;;-142.34;27.88
12951;BME280;6540;50.858;7.232;2023-04-28T09:00:48;51642.72;;;-142.34;27.14
12951;BME280;6540;50.858;7.232;2023-04-28T09:03:14;51646.75;;;-142.34;27.64
12951;BME280;6540;50.858;7.232;2023-04-28T09:05:39;51636.69;;;-142.34;28.29
12951;BME280;6540;50.858;7.232;2023-04-28T09:08:05;51618.53;;;-142.34;27.46
12951;BME280;6540;50.858;7.232;2023-04-28T09:10:30;51584.22;;;-142.34;26.61
12951;BME280;6540;50.858;7.232;2023-04-28T09:12:55;51620.53;;;-142.34;27.15
12951;BME280;6540;50.858;7.232;2023-04-28T09:17:54;51648.78;;;-142.34;27.29
12951;BME280;6540;50.858;7.232;2023-04-28T09:20:26;51596.34;;;-142.34;27.10
12951;BME280;6540;50.858;7.232;2023-04-28T09:22:53;51646.75;;;-142.34;28.07
12951;BME280;6540;50.858;7.232;2023-04-28T09:25:19;51604.41;;;-142.34;27.42
12951;BME280;6540;50.858;7.232;2023-04-28T09:27:51;51606.44;;;-142.34;27.78
12951;BME280;6540;50.858;7.232;2023-04-28T09:30:17;51614.50;;;-142.34;27.99
12951;BME280;6540;50.858;7.232;2023-04-28T09:32:42;51614.50;;;-142.34;27.80
12951;BME280;6540;50.858;7.232;2023-04-28T09:35:08;51596.34;;;-142.34;28.55
12951;BME280;6540;50.858;7.232;2023-04-28T09:37:34;51634.66;;;-142.34;28.92
12951;BME280;6540;50.858;7.232;2023-04-28T09:40:07;51644.75;;;-142.34;28.90
12951;BME280;6540;50.858;7.232;2023-04-28T09:45:13;51598.34;;;-142.34;27.99
12951;BME280;6540;50.858;7.232;2023-04-28T09:47:41;51677.03;;;-142.34;30.48
12951;BME280;6540;50.858;7.232;2023-04-28T09:50:08;51677.03;;;-142.34;30.09
12951;BME280;6540;50.858;7.232;2023-04-28T09:52:35;51725.44;;;-142.34;31.28
12951;BME280;6540;50.858;7.232;2023-04-28T09:55:03;51699.22;;;-142.34;30.65
12951;BME280;6540;50.858;7.232;2023-04-28T09:57:32;51721.41;;;-142.34;31.55
12951;BME280;6540;50.858;7.232;2023-04-28T09:59:58;51707.28;;;-142.34;30.68
12951;BME280;6540;50.858;7.232;2023-04-28T10:02:25;51717.38;;;-142.34;29.51
12951;BME280;6540;50.858;7.232;2023-04-28T10:04:50;51677.03;;;-142.34;29.68
12951;BME280;6540;50.858;7.232;2023-04-28T10:07:20;51662.91;;;-142.34;29.34
12951;BME280;6540;50.858;7.232;2023-04-28T10:09:47;51670.97;;;-142.34;30.29
12951;BME280;6540;50.858;7.232;2023-04-28T10:12:15;51711.31;;;-142.34;29.96
12951;BME280;6540;50.858;7.232;2023-04-28T10:14:41;51713.34;;;-142.34;30.78
12951;BME280;6540;50.858;7.232;2023-04-28T10:17:07;51725.44;;;-142.34;30.70
12951;BME280;6540;50.858;7.232;2023-04-28T10:19:33;51689.13;;;-142.34;30.76
12951;BME280;6540;50.858;7.232;2023-04-28T10:25:28;51717.38;;;-142.34;30.14
12951;BME280;6540;50.858;7.232;2023-04-28T10:27:54;51705.25;;;-142.34;30.43
12951;BME280;6540;50.858;7.232;2023-04-28T10:30:22;51685.09;;;-142.34;29.33
12951;BME280;6540;50.858;7.232;2023-04-28T10:38:04;51693.16;;;-142.34;30.25
12951;BME280;6540;50.858;7.232;2023-04-28T10:40:34;51693.16;;;-142.34;30.14
12951;BME280;6540;50.858;7.232;2023-04-28T10:43:00;51685.09;;;-142.34;30.92
12951;BME280;6540;50.858;7.232;2023-04-28T10:48:17;51618.53;;;-142.34;29.19
12951;BME280;6540;50.858;7.232;2023-04-28T10:56:21;51711.31;;;-142.34;31.56
12951;BME280;6540;50.858;7.232;2023-04-28T10:58:50;51701.22;;;-142.34;32.30
12951;BME280;6540;50.858;7.232;2023-04-28T11:08:51;51664.91;;;-142.34;30.44
12951;BME280;6540;50.858;7.232;2023-04-28T11:11:19;51681.06;;;-142.34;30.42
12951;BME280;6540;50.858;7.232;2023-04-28T11:13:45;51652.81;;;-142.34;30.50
12951;BME280;6540;50.858;7.232;2023-04-28T11:16:22;51701.22;;;-142.34;31.06
12951;BME280;6540;50.858;7.232;2023-04-28T11:18:52;51733.50;;;-142.34;31.72
12951;BME280;6540;50.858;7.232;2023-04-28T11:21:19;51673.00;;;-142.34;30.47
12951;BME280;6540;50.858;7.232;2023-04-28T11:23:45;51640.72;;;-142.34;30.15
12951;BME280;6540;50.858;7.232;2023-04-28T11:26:11;51689.13;;;-142.34;30.50
12951;BME280;6540;50.858;7.232;2023-04-28T11:29:07;51654.84;;;-142.34;30.50
12951;BME280;6540;50.858;7.232;2023-04-28T11:31:33;51628.63;;;-142.34;29.55
12951;BME280;6540;50.858;7.232;2023-04-28T11:34:11;51614.50;;;-142.34;29.34
12951;BME280;6540;50.858;7.232;2023-04-28T11:36:39;51606.44;;;-142.34;29.32
12951;BME280;6540;50.858;7.232;2023-04-28T11:39:10;51626.59;;;-142.34;30.72
12951;BME280;6540;50.858;7.232;2023-04-28T11:41:40;51616.50;;;-142.34;31.09
12951;BME280;6540;50.858;7.232;2023-04-28T11:44:12;51620.53;;;-142.34;31.22
12951;BME280;6540;50.858;7.232;2023-04-28T11:49:23;51644.75;;;-142.34;30.84
12951;BME280;6540;50.858;7.232;2023-04-28T11:51:50;51620.53;;;-142.34;30.46
12951;BME280;6540;50.858;7.232;2023-04-28T11:54:21;51616.50;;;-142.34;30.51
12951;BME280;6540;50.858;7.232;2023-04-28T11:56:47;51604.41;;;-142.34;30.46
12951;BME280;6540;50.858;7.232;2023-04-28T11:59:13;51592.31;;;-142.34;29.19
12951;BME280;6540;50.858;7.232;2023-04-28T12:01:51;51644.75;;;-142.34;30.08
12951;BME280;6540;50.858;7.232;2023-04-28T12:04:27;51652.81;;;-142.34;31.06
12951;BME280;6540;50.858;7.232;2023-04-28T12:07:00;51618.53;;;-142.34;30.66
12951;BME280;6540;50.858;7.232;2023-04-28T12:09:27;51626.59;;;-142.34;30.89
12951;BME280;6540;50.858;7.232;2023-04-28T12:11:57;51620.53;;;-142.34;30.78
12951;BME280;6540;50.858;7.232;2023-04-28T12:14:23;51612.47;;;-142.34;29.48
12951;BME280;6540;50.858;7.232;2023-04-28T12:16:49;51564.06;;;-142.34;28.64
12951;BME280;6540;50.858;7.232;2023-04-28T12:19:15;51539.84;;;-142.34;28.46
12951;BME280;6540;50.858;7.232;2023-04-28T12:21:41;51596.34;;;-142.34;28.93
12951;BME280;6540;50.858;7.232;2023-04-28T12:24:18;51556.00;;;-142.34;28.63
12951;BME280;6540;50.858;7.232;2023-04-28T12:26:44;51523.72;;;-142.34;28.12
12951;BME280;6540;50.858;7.232;2023-04-28T12:29:39;51525.75;;;-142.34;28.73
12951;BME280;6540;50.858;7.232;2023-04-28T12:32:09;51602.38;;;-142.34;30.09
12951;BME280;6540;50.858;7.232;2023-04-28T12:34:36;51568.09;;;-142.34;29.04
12951;BME280;6540;50.858;7.232;2023-04-28T12:37:03;51574.16;;;-142.34;30.42
12951;BME280;6540;50.858;7.232;2023-04-28T12:39:30;51556.00;;;-142.34;28.43
12951;BME280;6540;50.858;7.232;2023-04-28T12:41:56;51511.63;;;-142.34;27.95
12951;BME280;6540;50.858;7.232;2023-04-28T12:44:23;51549.94;;;-142.34;29.72
12951;BME280;6540;50.858;7.232;2023-04-28T12:46:50;51539.84;;;-142.34;29.04
12951;BME280;6540;50.858;7.232;2023-04-28T12:49:16;51564.06;;;-142.34;28.94
12951;BME280;6540;50.858;7.232;2023-04-28T12:51:41;51604.41;;;-142.34;29.92
12951;BME280;6540;50.858;7.232;2023-04-28T12:54:07;51553.97;;;-142.34;28.80
12951;BME280;6540;50.858;7.232;2023-04-28T12:56:32;51556.00;;;-142.34;28.71
12951;BME280;6540;50.858;7.232;2023-04-28T12:58:59;51491.44;;;-142.34;28.25
12951;BME280;6540;50.858;7.232;2023-04-28T13:01:24;51507.59;;;-142.34;28.29
12951;BME280;6540;50.858;7.232;2023-04-28T13:03:51;51539.84;;;-142.34;27.97
12951;BME280;6540;50.858;7.232;2023-04-28T13:06:17;51588.28;;;-142.34;30.38
12951;BME280;6540;50.858;7.232;2023-04-28T13:08:43;51547.94;;;-142.34;28.07
12951;BME280;6540;50.858;7.232;2023-04-28T13:11:09;51527.75;;;-142.34;28.20
12951;BME280;6540;50.858;7.232;2023-04-28T13:13:35;51491.44;;;-142.34;28.40
12951;BME280;6540;50.858;7.232;2023-04-28T13:16:00;51588.28;;;-142.34;28.68
12951;BME280;6540;50.858;7.232;2023-04-28T13:18:26;51543.88;;;-142.34;28.90
12951;BME280;6540;50.858;7.232;2023-04-28T13:20:51;51531.78;;;-142.34;28.31